Date,TemperatureHighF,TemperatureAvgF,TemperatureLowF,DewpointHighF,DewpointAvgF,DewpointLowF,HumidityHigh,HumidityAvg,HumidityLow,PressureMaxIn,PressureMinIn,WindSpeedMaxMPH,WindSpeedAvgMPH,GustSpeedMaxMPH,PrecipitationSumIn
2013-10-1,72.7,61.8,52.6,57.4,52.7,48.5,90,73,54,30.02,29.92,10,2,14,0.00
2013-10-2,71.1,63.8,55.3,60.2,55.1,49.7,92,74,59,30.01,29.89,12,3,21,0.00
2013-10-3,71.9,60.8,51.2,52.7,47.1,39.3,81,63,31,30.12,30.01,6,1,0,0.00
2013-10-4,58.9,56.9,55.4,55.6,51.3,47.7,97,82,68,30.11,30.06,2,0,0,0.32
2013-10-5,62.3,57.0,54.6,58.1,55.2,52.9,97,94,84,30.14,30.08,1,0,0,0.15
2013-10-6,56.5,54.7,50.8,55.9,54.2,50.3,98,98,98,30.20,30.11,5,1,0,0.55
2013-10-7,67.7,59.1,49.4,65.4,57.6,46.6,99,95,85,30.03,29.77,32,3,32,0.82
2013-10-8,58.2,50.5,43.2,46.4,40.7,35.7,92,71,44,30.41,29.95,13,3,19,0.00
2013-10-9,57.4,46.5,38.6,43.2,39.2,35.1,93,77,53,30.53,30.41,8,2,0,0.00
2013-10-10,53.0,47.4,41.2,44.3,41.5,37.6,96,81,63,30.41,30.23,3,1,0,0.00
2013-10-11,61.2,52.3,46.6,50.8,42.6,39.2,82,70,50,30.23,30.15,4,0,0,0.00
2013-10-12,55.1,51.5,49.7,47.7,43.6,41.7,82,74,68,30.29,30.19,5,1,0,0.00
2013-10-14,63.6,57.0,42.1,53.1,49.5,41.1,97,77,64,30.39,30.26,5,1,0,0.00
2013-10-15,62.6,57.0,50.1,54.6,52.8,48.2,94,86,73,30.29,30.16,4,1,0,0.00
2013-10-16,59.4,51.5,46.9,53.3,48.4,45.2,97,89,76,30.16,29.92,4,0,0,0.00
2013-10-17,66.9,58.0,51.1,57.3,51.1,46.5,98,80,50,29.92,29.68,10,1,13,0.00
2013-10-18,59.3,54.5,46.5,58.0,45.5,36.3,96,73,49,29.93,29.61,12,3,20,0.14
2013-10-19,61.0,51.2,41.2,46.2,40.7,37.6,90,68,48,29.99,29.75,11,2,15,0.05
2013-10-20,54.0,46.7,39.8,46.7,36.9,31.1,95,70,42,30.06,29.72,11,3,22,0.00
2013-10-21,61.2,48.9,37.8,40.5,37.3,33.9,87,66,43,30.14,29.99,8,1,13,0.00
2013-10-22,55.7,46.8,38.9,49.3,41.5,30.2,90,82,67,29.98,29.75,8,2,16,0.02
2013-10-23,46.7,41.0,33.2,33.5,30.5,28.5,84,66,51,29.83,29.64,8,2,12,0.00
2013-10-24,45.4,39.0,29.4,33.3,28.8,24.5,91,68,46,29.94,29.70,11,2,18,0.00
2013-10-25,41.9,36.7,30.5,33.0,28.8,25.4,93,74,53,30.19,29.95,13,3,22,0.00
2013-10-26,47.5,40.2,31.7,33.2,29.1,24.9,90,66,43,30.19,29.89,12,2,22,0.00
2013-10-27,46.2,41.0,32.9,33.4,30.8,28.3,83,67,52,30.10,29.83,12,2,18,0.00
2013-10-28,51.0,38.7,30.7,35.0,29.4,21.4,91,71,47,30.39,30.10,13,2,20,0.00
2013-10-29,42.6,33.4,26.5,24.3,20.5,19.0,74,60,41,30.49,30.39,9,1,0,0.00
2013-10-30,50.3,39.4,31.2,39.1,31.5,16.3,88,74,51,30.40,30.25,5,1,13,0.02
2013-10-31,57.2,47.6,37.6,56.1,46.3,34.9,98,95,85,30.28,29.78,8,2,15,0.77